Time;durP1;ratioP1;P1;durP2;ratioP2;P2;SDS_P1;SDS_P2;PMS_P1;PMS_P2;Temp;Humidity;BMP_temperature;BMP_pressure;BME280_temperature;BME280_humidity;BME280_pressure;Samples;Min_cycle;Max_cycle;Signal;HPM_P1;HPM_P2
2021/05/22 00:51:13;;;;;;;1.17;0.73;;;11.30;62.50;;;;;;4861811;29;20235;-79
2021/05/22 00:53:40;;;;;;;1.95;1.10;;;10.90;68.40;;;;;;4896784;29;20240;-79
2021/05/22 00:56:10;;;;;;;4.65;1.42;;;10.60;72.90;;;;;;4920108;29;20294;-80
2021/05/22 00:58:41;;;;;;;2.95;1.35;;;10.30;75.80;;;;;;4984557;28;20203;-79
2021/05/22 01:01:10;;;;;;;1.30;1.10;;;10.10;78.80;;;;;;5062541;28;20220;-79
2021/05/22 01:04:04;;;;;;;2.58;0.57;;;10.00;82.70;;;;;;5135514;28;20226;-80
2021/05/22 01:07:16;;;;;;;1.17;1.08;;;9.80;85.50;;;;;;5135796;28;20189;-79
2021/05/22 01:09:54;;;;;;;3.55;1.25;;;9.80;89.50;;;;;;5139048;27;20219;-80
2021/05/22 01:12:38;;;;;;;2.55;0.95;;;9.80;91.60;;;;;;5138382;27;20196;-79
2021/05/22 01:15:16;;;;;;;2.25;1.10;;;9.70;92.80;;;;;;5138624;27;20232;-79
2021/05/22 02:02:58;;;;;;;1.50;1.08;;;8.90;99.10;;;;;;5056505;22;20672;-79
2021/05/22 02:05:26;;;;;;;3.13;1.25;;;8.80;99.40;;;;;;4978086;28;20197;-79
2021/05/22 02:07:56;;;;;;;3.05;1.50;;;8.80;99.90;;;;;;4984467;28;20213;-79
2021/05/22 02:13:54;;;;;;;1.60;1.23;;;8.70;99.90;;;;;;5319548;23;20272;-80
2021/05/22 02:16:28;;;;;;;2.80;1.30;;;8.70;99.90;;;;;;5091060;28;20210;-78
2021/05/22 02:19:01;;;;;;;1.70;1.60;;;8.60;99.90;;;;;;5089637;28;20199;-79
2021/05/22 02:21:31;;;;;;;2.78;1.35;;;8.60;99.90;;;;;;5092567;28;20229;-80
2021/05/22 02:24:05;;;;;;;1.35;1.10;;;8.60;99.90;;;;;;5096290;28;20216;-79
2021/05/22 02:29:20;;;;;;;2.75;1.60;;;8.60;99.90;;;;;;5098094;28;20208;-80
2021/05/22 02:31:52;;;;;;;1.35;1.25;;;8.60;99.90;;;;;;5093914;28;20202;-79
2021/05/22 02:34:33;;;;;;;2.17;1.40;;;8.60;99.90;;;;;;5077847;28;20213;-79
2021/05/22 02:37:08;;;;;;;1.00;1.00;;;8.60;99.90;;;;;;5094507;28;20229;-80
2021/05/22 02:39:38;;;;;;;1.55;1.20;;;8.70;99.90;;;;;;5099048;28;20221;-79
2021/05/22 02:42:08;;;;;;;1.52;1.30;;;8.70;99.90;;;;;;5099213;28;20209;-80
2021/05/22 02:44:38;;;;;;;2.42;1.38;;;8.70;99.90;;;;;;5097983;28;20194;-79
2021/05/22 02:47:06;;;;;;;4.25;1.40;;;8.80;99.90;;;;;;5098426;28;20210;-79
2021/05/22 02:49:44;;;;;;;2.25;1.10;;;8.80;99.90;;;;;;5099316;28;20218;-79
2021/05/22 02:52:19;;;;;;;1.20;1.10;;;8.80;99.90;;;;;;5098406;28;20190;-79
2021/05/22 02:54:48;;;;;;;3.95;1.30;;;8.80;99.20;;;;;;5082059;28;20223;-79
2021/05/22 02:57:19;;;;;;;5.05;1.75;;;8.80;98.80;;;;;;5097397;28;20273;-78
2021/05/22 02:59:49;;;;;;;1.67;1.10;;;8.80;98.40;;;;;;5098327;28;20281;-80
2021/05/22 03:02:18;;;;;;;2.30;1.13;;;8.90;98.20;;;;;;5098631;28;20334;-79
2021/05/22 03:04:47;;;;;;;1.20;1.10;;;8.90;97.50;;;;;;5093883;28;20189;-79
2021/05/22 03:07:15;;;;;;;1.90;1.27;;;8.90;96.80;;;;;;5098841;28;20214;-80
2021/05/22 03:09:43;;;;;;;3.42;1.17;;;8.90;96.40;;;;;;5098340;28;20253;-80
2021/05/22 03:12:11;;;;;;;2.08;1.25;;;8.90;96.00;;;;;;5098810;28;20206;-80
2021/05/22 03:14:40;;;;;;;3.10;0.95;;;8.90;95.70;;;;;;5099309;28;20228;-80
2021/05/22 03:17:07;;;;;;;2.83;1.10;;;9.00;94.90;;;;;;5076659;28;20232;-78
2021/05/22 03:19:34;;;;;;;2.25;1.00;;;9.00;95.00;;;;;;5086108;28;20226;-81
2021/05/22 03:22:06;;;;;;;4.00;1.20;;;9.10;94.30;;;;;;5086008;28;20565;-80
2021/05/22 03:24:34;;;;;;;3.08;1.20;;;9.20;93.40;;;;;;5092801;28;20190;-79
2021/05/22 03:27:02;;;;;;;3.17;1.10;;;9.20;92.60;;;;;;5091323;28;20202;-80
2021/05/22 03:29:29;;;;;;;4.05;0.90;;;9.30;91.40;;;;;;5095035;28;20233;-78
2021/05/22 03:31:56;;;;;;;4.63;1.17;;;9.30;91.40;;;;;;5099242;28;20265;-79
2021/05/22 03:34:30;;;;;;;3.67;1.25;;;9.20;91.30;;;;;;5098828;28;20257;-79
2021/05/22 03:36:58;;;;;;;1.20;1.05;;;9.20;90.50;;;;;;5081691;28;20208;-79
2021/05/22 03:39:26;;;;;;;1.63;1.10;;;9.20;90.60;;;;;;5096571;28;20206;-79
2021/05/22 03:41:54;;;;;;;1.52;1.20;;;9.20;90.90;;;;;;5081766;28;20701;-80
2021/05/22 03:44:21;;;;;;;3.35;1.30;;;9.10;91.10;;;;;;5083230;28;20213;-79
2021/05/22 03:46:48;;;;;;;3.38;1.02;;;9.20;91.30;;;;;;5081317;28;20641;-79
2021/05/22 03:49:17;;;;;;;2.70;1.30;;;9.20;91.00;;;;;;5089986;28;20251;-79
2021/05/22 03:51:48;;;;;;;1.52;0.88;;;9.30;90.70;;;;;;5085016;28;20294;-79
2021/05/22 03:54:15;;;;;;;3.08;0.90;;;9.40;90.00;;;;;;5064812;28;20214;-79
2021/05/22 03:56:43;;;;;;;3.95;1.23;;;9.50;88.00;;;;;;5089159;28;20213;-79
2021/05/22 03:59:10;;;;;;;1.15;0.93;;;9.60;85.40;;;;;;5082913;28;20206;-79
2021/05/22 04:01:36;;;;;;;3.63;1.08;;;9.70;85.40;;;;;;5079299;28;20229;-79
2021/05/22 04:04:03;;;;;;;2.85;0.90;;;9.70;83.60;;;;;;5084242;28;20275;-80
2021/05/22 04:06:30;;;;;;;3.22;1.45;;;9.70;83.60;;;;;;5077643;28;20218;-79
2021/05/22 04:08:56;;;;;;;1.98;0.80;;;9.60;84.60;;;;;;5077819;28;20198;-80
2021/05/22 04:11:23;;;;;;;5.10;1.25;;;9.50;84.70;;;;;;5077924;28;20280;-79
2021/05/22 04:13:50;;;;;;;3.63;1.38;;;9.40;85.20;;;;;;5077795;28;20217;-79
2021/05/22 04:16:17;;;;;;;2.70;1.30;;;9.40;85.10;;;;;;5076939;28;20194;-80
2021/05/22 04:18:43;;;;;;;4.93;0.73;;;9.50;85.20;;;;;;5076978;28;20209;-79
2021/05/22 04:21:11;;;;;;;0.80;0.80;;;9.50;83.40;;;;;;5077636;28;20230;-78
2021/05/22 04:23:38;;;;;;;1.48;1.02;;;9.40;82.90;;;;;;5077668;28;20209;-79
2021/05/22 04:26:04;;;;;;;1.42;0.73;;;9.40;82.80;;;;;;5078005;28;20255;-80
2021/05/22 04:28:30;;;;;;;4.75;1.00;;;9.40;82.90;;;;;;5080260;28;20563;-79
2021/05/22 04:30:58;;;;;;;1.65;1.40;;;9.40;83.20;;;;;;5090989;28;20232;-80
2021/05/22 04:33:24;;;;;;;1.77;1.10;;;9.50;83.20;;;;;;5089516;28;20213;-79
2021/05/22 04:35:59;;;;;;;4.63;1.05;;;9.60;81.90;;;;;;5095636;28;20225;-78
2021/05/22 04:38:26;;;;;;;2.30;1.10;;;9.70;80.70;;;;;;5088231;28;20284;-79
2021/05/22 04:40:53;;;;;;;2.97;0.90;;;9.80;79.70;;;;;;5088227;28;20218;-80
2021/05/22 04:43:20;;;;;;;1.45;1.10;;;10.00;78.20;;;;;;5091925;28;20629;-79
2021/05/22 04:45:46;;;;;;;1.77;1.10;;;10.30;76.50;;;;;;5089094;28;20273;-78
2021/05/22 04:48:14;;;;;;;5.88;0.90;;;10.50;73.80;;;;;;5089809;28;20213;-80
2021/05/22 04:50:40;;;;;;;1.55;1.40;;;10.70;71.90;;;;;;5081973;28;20582;-79
2021/05/22 04:53:07;;;;;;;1.90;0.70;;;11.10;69.90;;;;;;5079273;28;20208;-81
2021/05/22 04:55:33;;;;;;;2.58;0.80;;;11.80;65.60;;;;;;5082575;28;20255;-80
2021/05/22 04:58:00;;;;;;;1.75;0.70;;;12.40;60.80;;;;;;5079283;28;20237;-79
2021/05/22 05:00:26;;;;;;;2.88;1.20;;;13.00;56.20;;;;;;5095415;28;20225;-80
2021/05/22 05:02:54;;;;;;;0.75;0.65;;;13.40;54.10;;;;;;5095812;28;20217;-80
2021/05/22 05:05:22;;;;;;;1.40;1.10;;;13.80;52.80;;;;;;5079247;28;20206;-80
2021/05/22 05:07:48;;;;;;;2.10;0.93;;;14.00;51.10;;;;;;5083924;28;20193;-84
2021/05/22 05:10:16;;;;;;;1.65;0.80;;;14.30;50.30;;;;;;5097609;28;20228;-79
2021/05/22 05:12:42;;;;;;;1.08;0.80;;;14.30;49.10;;;;;;5093729;28;20198;-82
2021/05/22 05:15:09;;;;;;;2.15;1.10;;;14.60;48.40;;;;;;5083513;28;20225;-81
2021/05/22 05:17:36;;;;;;;2.63;1.40;;;14.80;47.70;;;;;;5086928;28;20214;-83
2021/05/22 05:20:04;;;;;;;6.53;1.53;;;15.20;45.90;;;;;;5089785;28;20783;-81
2021/05/22 05:22:32;;;;;;;1.63;0.80;;;15.10;45.70;;;;;;5094869;28;20490;-79
2021/05/22 05:24:58;;;;;;;1.17;0.80;;;15.40;44.50;;;;;;5095624;28;20456;-79
2021/05/22 05:27:24;;;;;;;1.83;1.00;;;15.60;44.70;;;;;;5082793;28;20426;-80
2021/05/22 05:29:51;;;;;;;1.97;1.10;;;15.90;43.10;;;;;;5085336;28;20442;-81
2021/05/22 05:32:17;;;;;;;0.67;0.63;;;15.70;42.40;;;;;;5096828;28;20428;-81
2021/05/22 05:34:43;;;;;;;3.03;1.10;;;15.70;42.70;;;;;;5091396;28;20440;-82
2021/05/22 05:37:10;;;;;;;1.63;0.90;;;15.90;42.30;;;;;;5081602;28;20434;-80
2021/05/22 05:39:37;;;;;;;4.07;1.40;;;16.30;41.40;;;;;;5083645;28;20430;-81
2021/05/22 05:42:05;;;;;;;2.10;1.13;;;16.20;40.50;;;;;;5081387;28;20499;-82
2021/05/22 05:44:31;;;;;;;3.50;1.37;;;16.20;40.60;;;;;;5077709;28;20430;-81
2021/05/22 05:46:58;;;;;;;3.30;1.27;;;16.30;39.60;;;;;;5077582;28;20531;-80
2021/05/22 05:49:28;;;;;;;2.07;1.00;;;16.20;40.30;;;;;;5077298;28;20967;-82
2021/05/22 05:51:55;;;;;;;2.37;0.93;;;16.60;39.00;;;;;;5077457;28;20448;-82
2021/05/22 05:54:22;;;;;;;3.03;0.93;;;16.70;38.60;;;;;;5078921;28;20456;-81
2021/05/22 05:56:49;;;;;;;2.70;1.57;;;16.90;38.30;;;;;;5078881;28;20531;-82
2021/05/22 05:59:15;;;;;;;2.87;1.40;;;17.00;36.30;;;;;;5078394;28;20479;-81
2021/05/22 06:01:42;;;;;;;4.67;1.27;;;16.60;37.80;;;;;;5083325;28;20455;-81
2021/05/22 06:04:08;;;;;;;1.70;0.90;;;17.00;36.00;;;;;;5088125;28;20448;-81
2021/05/22 06:06:35;;;;;;;3.93;1.30;;;16.90;35.90;;;;;;5094145;28;20426;-80
2021/05/22 06:09:02;;;;;;;3.13;1.13;;;17.00;36.00;;;;;;5096386;28;20459;-79
2021/05/22 06:11:30;;;;;;;1.80;1.20;;;16.40;35.60;;;;;;5095012;28;20476;-80
2021/05/22 06:13:58;;;;;;;3.27;1.20;;;16.40;36.10;;;;;;5094840;28;20485;-81
2021/05/22 06:16:28;;;;;;;3.50;1.37;;;16.50;35.50;;;;;;5084510;28;20435;-81
2021/05/22 06:18:54;;;;;;;1.80;1.00;;;16.50;35.60;;;;;;5087190;28;20423;-82
2021/05/22 06:21:21;;;;;;;3.10;1.23;;;16.60;35.60;;;;;;5091004;28;20492;-82
2021/05/22 06:23:48;;;;;;;2.10;0.90;;;16.60;35.60;;;;;;5088501;28;20426;-82
2021/05/22 06:26:15;;;;;;;4.77;0.97;;;16.50;35.50;;;;;;5090551;28;20461;-81
2021/05/22 06:28:41;;;;;;;5.17;1.33;;;16.30;35.40;;;;;;5087111;28;20418;-80
2021/05/22 06:31:09;;;;;;;3.53;1.20;;;16.30;35.30;;;;;;5081023;28;20496;-81
2021/05/22 06:33:35;;;;;;;1.57;1.10;;;16.20;36.30;;;;;;5079709;28;20499;-81
2021/05/22 06:36:03;;;;;;;1.40;0.80;;;16.50;35.50;;;;;;5093636;28;20406;-79
2021/05/22 06:38:29;;;;;;;2.17;1.17;;;16.80;35.80;;;;;;5090034;28;20447;-80
2021/05/22 06:40:56;;;;;;;3.17;1.07;;;16.80;34.40;;;;;;5091297;28;20450;-81
2021/05/22 06:43:22;;;;;;;5.73;1.47;;;16.90;35.90;;;;;;5089738;28;20489;-80
2021/05/22 06:45:58;;;;;;;2.60;0.90;;;17.30;32.50;;;;;;5088748;28;20448;-81
2021/05/22 06:48:25;;;;;;;5.63;1.20;;;17.40;33.10;;;;;;5088378;28;20470;-81
2021/05/22 06:50:53;;;;;;;1.80;1.07;;;17.00;33.40;;;;;;5089374;28;20464;-82
2021/05/22 06:53:19;;;;;;;1.90;0.83;;;16.20;34.10;;;;;;5090104;28;20459;-80
2021/05/22 06:55:45;;;;;;;9.38;1.63;;;15.70;34.80;;;;;;5086237;28;20458;-81
2021/05/22 06:58:12;;;;;;;3.83;1.25;;;15.00;35.40;;;;;;5076359;28;20233;-81
2021/05/22 07:00:41;;;;;;;1.48;0.80;;;14.90;37.20;;;;;;5077777;28;20311;-82
2021/05/22 07:03:08;;;;;;;4.25;1.38;;;14.70;37.60;;;;;;5078466;28;20256;-80
2021/05/22 07:05:35;;;;;;;7.28;1.50;;;14.60;37.60;;;;;;5079002;28;20223;-81
2021/05/22 07:08:02;;;;;;;3.85;1.25;;;14.60;38.40;;;;;;5080650;28;20261;-78
2021/05/22 07:10:29;;;;;;;4.95;1.00;;;14.60;37.30;;;;;;5097580;28;20226;-79
2021/05/22 07:12:55;;;;;;;6.28;1.40;;;14.40;37.80;;;;;;5095377;28;20209;-80
2021/05/22 07:15:22;;;;;;;3.03;1.10;;;14.40;38.40;;;;;;5088214;28;20202;-81
2021/05/22 07:17:48;;;;;;;2.00;1.05;;;14.50;38.30;;;;;;5084359;28;20210;-81
2021/05/22 07:20:15;;;;;;;2.30;1.13;;;14.50;38.60;;;;;;5087577;28;20241;-79
2021/05/22 07:22:43;;;;;;;2.45;1.20;;;14.50;38.50;;;;;;5096139;28;20261;-77
2021/05/22 07:25:11;;;;;;;2.67;1.05;;;14.50;37.70;;;;;;5099808;28;20208;-78
2021/05/22 07:27:37;;;;;;;6.00;1.10;;;14.50;38.00;;;;;;5099096;28;20212;-78
2021/05/22 07:30:07;;;;;;;2.05;0.95;;;14.70;37.50;;;;;;5083552;28;20226;-81
2021/05/22 07:32:34;;;;;;;4.53;1.33;;;14.80;37.60;;;;;;5093122;28;20202;-79
2021/05/22 07:35:00;;;;;;;3.60;1.33;;;14.90;37.80;;;;;;5094436;28;20212;-78
2021/05/22 07:37:26;;;;;;;4.63;1.20;;;14.60;36.50;;;;;;5092239;28;20213;-78
2021/05/22 07:39:56;;;;;;;3.05;1.10;;;14.70;37.80;;;;;;5080804;28;20229;-79
2021/05/22 07:42:24;;;;;;;8.13;1.35;;;14.80;38.10;;;;;;5089763;28;20217;-78
2021/05/22 07:44:51;;;;;;;4.17;1.00;;;14.80;37.80;;;;;;5086608;28;20217;-79
2021/05/22 07:47:17;;;;;;;5.03;2.40;;;15.00;36.10;;;;;;5090789;28;20430;-79
2021/05/22 07:49:43;;;;;;;2.97;1.20;;;15.10;36.70;;;;;;5085369;28;20236;-81
2021/05/22 07:52:11;;;;;;;3.00;1.30;;;15.30;36.00;;;;;;5082584;28;20618;-81
2021/05/22 07:54:39;;;;;;;1.77;0.93;;;15.40;34.50;;;;;;5092975;28;20197;-81
2021/05/22 07:57:09;;;;;;;2.67;1.13;;;15.50;35.10;;;;;;5097496;28;20190;-81
2021/05/22 07:59:36;;;;;;;4.30;1.50;;;15.60;34.70;;;;;;5098283;28;20458;-82
2021/05/22 08:02:03;;;;;;;3.25;1.25;;;15.50;34.60;;;;;;5095471;28;20475;-79
2021/05/22 08:04:29;;;;;;;3.72;1.20;;;15.40;35.00;;;;;;5082040;28;20580;-79
2021/05/22 08:06:56;;;;;;;5.75;1.10;;;15.40;34.50;;;;;;5081904;28;20570;-80
2021/05/22 08:09:23;;;;;;;3.03;0.97;;;15.30;34.40;;;;;;5088973;28;20210;-81
2021/05/22 08:11:49;;;;;;;3.57;0.90;;;15.30;33.60;;;;;;5086458;28;20483;-79
2021/05/22 08:14:17;;;;;;;6.87;1.27;;;15.40;34.50;;;;;;5083360;28;20437;-80
2021/05/22 08:16:44;;;;;;;4.90;1.73;;;15.60;32.50;;;;;;5082754;28;20456;-81
2021/05/22 08:19:12;;;;;;;1.80;1.00;;;15.70;32.60;;;;;;5083822;28;20468;-79
2021/05/22 08:21:41;;;;;;;3.45;1.27;;;15.80;30.80;;;;;;5088255;28;20233;-80
2021/05/22 08:24:09;;;;;;;5.50;0.90;;;15.80;30.00;;;;;;5085138;28;20228;-80
2021/05/22 08:26:43;;;;;;;6.57;1.08;;;15.60;29.20;;;;;;5094694;28;20465;-82
2021/05/22 08:29:10;;;;;;;3.95;0.95;;;15.60;29.40;;;;;;5095664;28;20257;-83
2021/05/22 08:31:38;;;;;;;1.90;1.10;;;15.70;30.10;;;;;;5098239;28;20194;-87
2021/05/22 08:34:05;;;;;;;5.90;1.67;;;15.90;30.10;;;;;;5090306;28;20466;-82
2021/05/22 08:36:32;;;;;;;2.23;1.17;;;16.00;30.60;;;;;;5081116;28;20423;-82
2021/05/22 08:38:59;;;;;;;2.53;1.10;;;15.80;29.60;;;;;;5080426;28;20506;-82
2021/05/22 08:41:25;;;;;;;2.80;1.17;;;15.80;28.90;;;;;;5081865;28;20541;-81
2021/05/22 08:44:01;;;;;;;1.20;0.87;;;15.90;28.50;;;;;;5081474;28;20452;-84
2021/05/22 08:46:29;;;;;;;1.37;1.13;;;16.30;28.10;;;;;;5079606;28;20430;-80
2021/05/22 08:48:58;;;;;;;2.50;1.37;;;16.90;28.10;;;;;;5093336;28;20431;-84
2021/05/22 08:51:24;;;;;;;3.57;1.20;;;17.00;28.00;;;;;;5093915;28;20430;-82
2021/05/22 08:53:51;;;;;;;3.10;1.30;;;17.00;27.90;;;;;;5093079;28;20486;-81
2021/05/22 08:56:18;;;;;;;4.57;1.10;;;17.00;28.00;;;;;;5092646;28;20430;-82
2021/05/22 08:58:46;;;;;;;3.73;1.40;;;17.00;27.60;;;;;;5096668;28;20411;-83
2021/05/22 09:01:13;;;;;;;3.50;1.23;;;17.30;27.40;;;;;;5092497;28;20456;-82
2021/05/22 09:03:39;;;;;;;3.30;1.10;;;17.20;26.90;;;;;;5084025;28;20913;-82
2021/05/22 09:06:07;;;;;;;3.70;1.13;;;17.10;26.80;;;;;;5081399;28;20459;-82
2021/05/22 09:08:33;;;;;;;4.10;1.00;;;17.00;26.70;;;;;;5081328;28;20436;-82
2021/05/22 09:11:03;;;;;;;3.20;1.03;;;17.00;26.70;;;;;;5078054;28;21007;-80
2021/05/22 09:13:32;;;;;;;6.13;1.17;;;17.00;26.70;;;;;;5077915;28;20543;-81
2021/05/22 09:16:09;;;;;;;2.20;1.10;;;17.10;26.70;;;;;;5089651;28;20440;-81
2021/05/22 09:18:37;;;;;;;2.10;0.90;;;17.30;26.90;;;;;;5087595;28;20446;-82
2021/05/22 09:21:08;;;;;;;3.43;1.10;;;17.60;26.10;;;;;;5084899;28;20438;-80
2021/05/22 09:23:36;;;;;;;2.53;1.30;;;17.70;25.70;;;;;;5091587;28;20506;-81
2021/05/22 09:26:05;;;;;;;3.20;1.23;;;17.60;25.00;;;;;;5087652;28;20447;-83
2021/05/22 09:28:34;;;;;;;1.90;1.10;;;17.50;25.00;;;;;;5095094;28;20518;-82
2021/05/22 09:31:02;;;;;;;2.90;1.00;;;17.50;25.60;;;;;;5092333;28;20829;-82
2021/05/22 09:33:31;;;;;;;1.60;0.90;;;17.70;24.40;;;;;;5082209;28;20457;-83
2021/05/22 09:35:59;;;;;;;3.30;1.20;;;17.40;24.90;;;;;;5081744;28;20458;-82
2021/05/22 09:38:35;;;;;;;1.60;1.10;;;17.10;25.20;;;;;;5083925;28;20472;-83
2021/05/22 09:41:17;;;;;;;3.03;1.33;;;17.20;25.20;;;;;;5088514;28;20507;-82
2021/05/22 09:44:08;;;;;;;3.33;1.10;;;17.40;25.10;;;;;;5089153;28;20483;-81
2021/05/22 09:46:35;;;;;;;5.87;1.10;;;17.50;24.20;;;;;;5089126;28;20434;-83
2021/05/22 09:49:03;;;;;;;3.10;1.07;;;17.30;24.90;;;;;;5087133;28;20471;-81
2021/05/22 09:51:29;;;;;;;2.30;0.90;;;17.30;24.10;;;;;;5083655;28;20529;-81
2021/05/22 09:53:56;;;;;;;3.20;1.30;;;17.00;24.70;;;;;;5083250;28;20442;-82
2021/05/22 09:56:25;;;;;;;3.97;1.20;;;16.70;25.50;;;;;;5084945;28;20535;-83
2021/05/22 09:58:54;;;;;;;6.70;0.90;;;16.90;25.10;;;;;;5090193;28;20543;-80
2021/05/22 10:01:30;;;;;;;7.03;1.30;;;17.00;24.50;;;;;;5093183;28;20460;-83
2021/05/22 10:04:15;;;;;;;2.70;0.80;;;17.00;23.90;;;;;;5094800;28;20994;-81
2021/05/22 10:06:42;;;;;;;3.57;1.00;;;16.70;24.00;;;;;;5083823;28;20407;-81
2021/05/22 10:09:13;;;;;;;1.77;1.20;;;16.80;24.00;;;;;;5093045;28;20440;-85
2021/05/22 10:12:04;;;;;;;2.40;0.93;;;17.20;23.80;;;;;;5093130;28;20426;-81
2021/05/22 10:14:33;;;;;;;2.83;1.27;;;17.30;23.10;;;;;;5090121;28;20506;-82
2021/05/22 10:17:02;;;;;;;1.70;0.90;;;17.50;22.60;;;;;;5083225;28;20440;-80
2021/05/22 10:19:29;;;;;;;3.20;1.00;;;17.30;23.00;;;;;;5083905;28;20448;-81
2021/05/22 10:21:57;;;;;;;1.93;0.70;;;17.60;23.30;;;;;;5089921;28;20842;-84
2021/05/22 10:24:24;;;;;;;2.03;0.90;;;17.80;21.80;;;;;;5093997;28;20431;-81
2021/05/22 10:26:52;;;;;;;2.90;0.93;;;18.00;20.60;;;;;;5092957;28;20486;-80
2021/05/22 10:29:19;;;;;;;2.60;1.30;;;18.30;19.40;;;;;;5089623;28;20411;-81
2021/05/22 10:31:46;;;;;;;2.93;1.50;;;18.40;19.50;;;;;;5081367;28;20455;-82
2021/05/22 10:34:14;;;;;;;2.43;0.70;;;18.20;19.40;;;;;;5080863;28;20429;-82
2021/05/22 10:36:50;;;;;;;1.47;1.10;;;17.70;19.80;;;;;;5079461;28;20485;-82
2021/05/22 10:39:39;;;;;;;4.70;0.97;;;17.30;20.00;;;;;;5080533;28;20433;-82
2021/05/22 10:42:07;;;;;;;2.63;1.00;;;17.00;21.00;;;;;;5096037;28;20496;-80
2021/05/22 10:44:38;;;;;;;0.97;0.90;;;16.80;21.70;;;;;;5097347;28;20435;-81
2021/05/22 10:47:11;;;;;;;2.80;1.20;;;16.80;21.90;;;;;;5095386;28;20431;-81
2021/05/22 10:49:53;;;;;;;3.40;1.20;;;17.00;22.60;;;;;;5083254;28;20498;-81
2021/05/22 10:52:21;;;;;;;3.23;1.13;;;17.30;21.50;;;;;;5083107;28;20438;-82
2021/05/22 10:55:01;;;;;;;2.00;0.80;;;17.70;21.70;;;;;;5082585;28;20463;-81
2021/05/22 10:57:28;;;;;;;3.30;1.00;;;18.10;20.80;;;;;;5085498;28;20440;-83
2021/05/22 11:00:17;;;;;;;2.17;0.80;;;18.10;20.10;;;;;;5082370;28;20446;-82
2021/05/22 11:02:45;;;;;;;3.40;0.90;;;17.90;20.00;;;;;;5080551;28;20566;-82
2021/05/22 11:05:38;;;;;;;1.03;0.50;;;17.80;19.70;;;;;;5080477;28;20958;-82
2021/05/22 11:08:33;;;;;;;1.40;0.70;;;17.70;20.30;;;;;;5080409;28;20462;-81
2021/05/22 11:11:01;;;;;;;1.43;0.90;;;18.00;20.20;;;;;;5082283;28;20468;-82
2021/05/22 11:13:39;;;;;;;1.73;0.80;;;18.30;19.40;;;;;;5088008;28;20672;-80
2021/05/22 11:16:07;;;;;;;3.13;0.83;;;18.30;18.90;;;;;;5091830;28;20446;-81
2021/05/22 11:19:02;;;;;;;3.97;1.37;;;18.40;19.50;;;;;;5092147;28;20839;-80
2021/05/22 11:21:29;;;;;;;4.00;0.80;;;18.50;19.40;;;;;;5093200;28;20442;-81
2021/05/22 11:24:21;;;;;;;2.97;1.47;;;18.60;19.30;;;;;;5086378;28;20986;-81
2021/05/22 11:27:07;;;;;;;2.00;0.80;;;18.80;19.20;;;;;;5083485;28;20533;-82
2021/05/22 11:29:57;;;;;;;3.33;0.90;;;19.00;17.80;;;;;;5083412;28;20721;-80
2021/05/22 11:32:52;;;;;;;2.33;0.93;;;19.30;17.80;;;;;;5083610;28;20418;-81
2021/05/22 11:35:44;;;;;;;1.60;1.00;;;19.30;17.10;;;;;;5084672;28;20542;-81
2021/05/22 11:38:35;;;;;;;1.33;0.80;;;19.20;17.20;;;;;;5082083;28;20918;-80
2021/05/22 11:41:15;;;;;;;2.60;0.80;;;19.20;17.50;;;;;;5083694;28;20457;-80
2021/05/22 11:43:45;;;;;;;3.77;0.77;;;19.50;17.20;;;;;;5084203;28;20470;-80
2021/05/22 11:46:14;;;;;;;2.80;1.00;;;19.20;17.70;;;;;;5091397;28;20430;-79
2021/05/22 11:48:43;;;;;;;1.93;1.00;;;18.80;17.70;;;;;;5093704;28;20449;-81
2021/05/22 11:51:14;;;;;;;3.40;0.97;;;19.00;17.10;;;;;;5090138;28;20450;-81
2021/05/22 11:53:42;;;;;;;1.50;0.90;;;19.10;18.20;;;;;;5084183;28;20407;-81
2021/05/22 11:56:12;;;;;;;1.13;0.80;;;18.90;18.10;;;;;;5083404;28;20490;-80
2021/05/22 11:58:39;;;;;;;2.30;0.70;;;18.60;18.70;;;;;;5085218;28;20450;-80
2021/05/22 12:01:10;;;;;;;1.63;0.80;;;18.30;19.50;;;;;;5084236;28;20485;-79
2021/05/22 12:03:37;;;;;;;1.20;0.63;;;18.50;19.60;;;;;;5085623;28;20458;-80
2021/05/22 12:06:05;;;;;;;2.93;0.83;;;19.00;19.90;;;;;;5086768;28;20509;-80
2021/05/22 12:08:32;;;;;;;2.40;0.93;;;19.60;19.80;;;;;;5086372;28;20453;-79
2021/05/22 12:11:08;;;;;;;2.40;0.97;;;19.50;18.50;;;;;;5091244;28;20450;-79
2021/05/22 12:13:55;;;;;;;1.10;0.70;;;19.30;19.00;;;;;;5091282;28;20452;-80
2021/05/22 12:16:23;;;;;;;2.00;0.70;;;19.00;19.00;;;;;;5090541;28;20423;-80
2021/05/22 12:18:50;;;;;;;0.90;0.70;;;18.30;19.40;;;;;;5089719;28;20459;-78
2021/05/22 12:21:25;;;;;;;2.17;0.70;;;18.20;20.30;;;;;;5090606;28;20446;-81
2021/05/22 12:23:53;;;;;;;0.70;0.50;;;18.10;20.70;;;;;;5089072;28;20484;-81
2021/05/22 12:26:20;;;;;;;1.20;0.90;;;18.30;20.50;;;;;;5087542;28;20430;-81
2021/05/22 12:28:46;;;;;;;4.73;1.13;;;18.40;21.10;;;;;;5085504;28;20971;-81
2021/05/22 12:31:13;;;;;;;1.00;0.60;;;18.00;22.30;;;;;;5085963;28;20456;-81
2021/05/22 12:33:40;;;;;;;4.93;0.63;;;18.00;23.10;;;;;;5086188;28;20426;-81
2021/05/22 12:36:08;;;;;;;2.70;0.60;;;18.30;22.60;;;;;;5089007;28;20520;-80
2021/05/22 12:38:37;;;;;;;1.00;0.60;;;18.90;21.80;;;;;;5090805;28;20439;-80
2021/05/22 12:41:03;;;;;;;1.40;0.83;;;19.00;21.30;;;;;;5091366;28;20475;-80
2021/05/22 12:43:42;;;;;;;2.70;0.90;;;18.90;21.50;;;;;;5090657;28;20553;-80
2021/05/22 12:46:23;;;;;;;1.20;0.47;;;18.90;20.70;;;;;;5097447;28;20441;-80
2021/05/22 12:48:50;;;;;;;0.97;0.50;;;18.70;19.70;;;;;;5097114;28;20436;-81
2021/05/22 12:51:20;;;;;;;3.20;0.67;;;18.50;20.80;;;;;;5095114;28;20443;-81
2021/05/22 12:53:46;;;;;;;0.60;0.57;;;18.50;21.00;;;;;;5089969;28;20476;-81
2021/05/22 12:56:13;;;;;;;0.50;0.40;;;18.70;22.00;;;;;;5089382;28;20431;-78
2021/05/22 12:58:39;;;;;;;1.00;0.53;;;18.90;21.70;;;;;;5089357;28;20441;-82
2021/05/22 13:01:16;;;;;;;0.70;0.50;;;18.90;20.30;;;;;;5081270;28;20563;-80
2021/05/22 13:03:46;;;;;;;1.77;0.60;;;18.80;21.20;;;;;;5080423;28;20505;-80
2021/05/22 13:06:25;;;;;;;0.83;0.50;;;18.80;20.60;;;;;;5080874;28;20440;-82
2021/05/22 13:08:52;;;;;;;1.60;0.57;;;18.60;19.70;;;;;;5091356;28;20451;-81
2021/05/22 13:11:19;;;;;;;2.63;0.70;;;18.60;20.20;;;;;;5091496;28;20447;-82
2021/05/22 13:13:46;;;;;;;2.40;0.90;;;18.60;20.80;;;;;;5094035;28;20415;-80
2021/05/22 13:16:14;;;;;;;2.00;0.70;;;18.60;20.80;;;;;;5094536;28;20411;-79
2021/05/22 13:18:42;;;;;;;2.70;0.50;;;18.60;20.70;;;;;;5094942;28;20411;-80
2021/05/22 13:21:11;;;;;;;1.70;0.90;;;18.70;19.70;;;;;;5093328;28;20473;-79
2021/05/22 13:23:39;;;;;;;3.30;0.50;;;18.80;20.10;;;;;;5092703;28;20523;-80
2021/05/22 13:26:17;;;;;;;0.60;0.60;;;18.80;19.80;;;;;;5096609;28;20444;-77
2021/05/22 13:28:48;;;;;;;2.13;0.80;;;19.10;20.00;;;;;;5094389;28;20435;-80
2021/05/22 13:31:16;;;;;;;3.03;0.87;;;19.00;20.40;;;;;;5091730;28;20480;-79
2021/05/22 13:33:47;;;;;;;4.80;0.70;;;19.20;21.40;;;;;;5090116;28;20483;-80
2021/05/22 13:36:14;;;;;;;1.73;0.73;;;19.30;20.40;;;;;;5089152;28;20427;-81
2021/05/22 13:38:41;;;;;;;1.57;0.80;;;19.20;20.80;;;;;;5089376;28;20448;-80
2021/05/22 13:41:08;;;;;;;4.10;1.20;;;19.10;20.00;;;;;;5088592;28;20464;-81
2021/05/22 13:43:36;;;;;;;7.60;0.87;;;19.10;20.00;;;;;;5087600;28;20522;-82
2021/05/22 13:46:02;;;;;;;2.30;0.60;;;19.20;20.10;;;;;;5088217;28;20451;-80
2021/05/22 13:48:29;;;;;;;0.73;0.60;;;19.00;20.00;;;;;;5088415;28;20430;-81
2021/05/22 13:50:56;;;;;;;2.27;0.87;;;19.00;19.90;;;;;;5088626;28;20442;-81
2021/05/22 13:53:22;;;;;;;2.20;0.60;;;19.00;19.90;;;;;;5087787;28;20474;-78
2021/05/22 13:55:50;;;;;;;3.07;0.60;;;19.30;20.10;;;;;;5087229;28;20593;-81
2021/05/22 13:58:16;;;;;;;1.87;0.90;;;19.20;19.20;;;;;;5086266;28;20530;-80
2021/05/22 14:00:43;;;;;;;2.53;0.80;;;19.10;20.60;;;;;;5087230;28;20475;-81
2021/05/22 14:03:11;;;;;;;4.77;0.77;;;19.20;19.50;;;;;;5086636;28;20484;-83
2021/05/22 14:05:38;;;;;;;0.90;0.67;;;19.30;19.00;;;;;;5086990;28;20468;-81
2021/05/22 14:08:05;;;;;;;0.80;0.60;;;19.70;18.10;;;;;;5084489;28;20429;-81
2021/05/22 14:10:31;;;;;;;4.20;0.77;;;19.90;17.70;;;;;;5085325;28;20510;-81
2021/05/22 14:12:59;;;;;;;3.33;0.77;;;19.90;17.90;;;;;;5087524;28;20459;-80
2021/05/22 14:15:26;;;;;;;1.40;0.70;;;20.00;18.30;;;;;;5091309;28;20444;-79
2021/05/22 14:17:52;;;;;;;1.90;0.80;;;20.20;18.00;;;;;;5093237;28;20443;-80
2021/05/22 14:20:19;;;;;;;1.77;0.87;;;19.90;17.90;;;;;;5092002;28;20447;-79
2021/05/22 14:22:45;;;;;;;3.23;0.70;;;19.80;18.10;;;;;;5090749;28;20487;-82
2021/05/22 14:25:14;;;;;;;1.00;0.80;;;19.90;18.50;;;;;;5091008;28;20486;-77
2021/05/22 14:27:40;;;;;;;4.20;0.90;;;20.10;18.70;;;;;;5117588;22;20461;-80
2021/05/22 14:30:10;;;;;;;1.50;0.57;;;20.00;18.10;;;;;;5101829;28;20463;-79
2021/05/22 14:32:37;;;;;;;2.13;0.73;;;20.00;17.90;;;;;;5106459;28;20438;-79
2021/05/22 14:35:05;;;;;;;1.43;0.60;;;19.90;18.70;;;;;;5108021;28;20446;-80
2021/05/22 14:37:33;;;;;;;3.37;0.50;;;19.80;17.70;;;;;;5107604;28;20456;-81
2021/05/22 14:39:59;;;;;;;0.50;0.50;;;19.50;18.90;;;;;;5106019;28;20437;-79
2021/05/22 14:42:26;;;;;;;1.33;0.60;;;19.50;17.50;;;;;;5102537;28;20484;-79